Time;durP1;ratioP1;P1;durP2;ratioP2;P2;SDS_P1;SDS_P2;PMS_P1;PMS_P2;Temp;Humidity;BMP_temperature;BMP_pressure;BME280_temperature;BME280_humidity;BME280_pressure;Samples;Min_cycle;Max_cycle;Signal;HPM_P1;HPM_P2
2021/08/04 00:01:03;;;;;;;8.05;5.50;;;;;;;18.38;60.76;99511.97;1732543;80;21091;-40
2021/08/04 00:03:30;;;;;;;7.53;4.75;;;;;;;18.33;60.46;99515.75;1700173;83;21845;-40
2021/08/04 00:05:57;;;;;;;7.85;5.28;;;;;;;18.30;60.50;99513.20;1747739;80;21002;-40
2021/08/04 00:08:23;;;;;;;10.28;5.35;;;;;;;18.30;60.58;99518.70;1739953;80;21038;-40
2021/08/04 00:10:50;;;;;;;6.15;4.60;;;;;;;18.30;60.63;99520.69;1740114;80;21064;-40
2021/08/04 00:13:16;;;;;;;7.05;4.47;;;;;;;18.32;60.89;99521.83;1732069;80;21151;-40
2021/08/04 00:15:45;;;;;;;5.95;4.33;;;;;;;18.36;60.91;99523.94;1737778;80;20965;-40
2021/08/04 00:18:11;;;;;;;7.03;4.80;;;;;;;18.40;60.62;99521.93;1752918;80;20917;-40
2021/08/04 00:20:38;;;;;;;6.58;4.37;;;;;;;18.42;60.58;99529.17;1757840;80;21033;-40
2021/08/04 00:23:05;;;;;;;6.42;4.22;;;;;;;18.42;60.16;99533.30;1742832;80;21501;-40
2021/08/04 00:25:32;;;;;;;5.70;4.22;;;;;;;18.41;60.09;99533.69;1743532;80;21133;-40
2021/08/04 00:27:59;;;;;;;6.87;4.55;;;;;;;18.41;60.23;99532.31;1703515;83;21032;-40
2021/08/04 00:30:26;;;;;;;6.05;4.92;;;;;;;18.42;60.34;99534.66;1678874;84;21057;-40
2021/08/04 00:32:54;;;;;;;7.45;5.08;;;;;;;18.39;60.11;99531.38;1757872;80;21591;-40
2021/08/04 00:35:23;;;;;;;5.37;4.30;;;;;;;18.37;60.08;99528.84;1744975;80;21030;-40
2021/08/04 00:37:50;;;;;;;9.05;4.60;;;;;;;18.35;60.20;99529.85;1748617;80;21104;-40
2021/08/04 00:40:18;;;;;;;6.60;4.53;;;;;;;18.33;60.26;99530.25;1682529;84;21035;-40
2021/08/04 00:42:45;;;;;;;6.08;4.40;;;;;;;18.30;60.40;99530.30;1685925;84;21005;-40
2021/08/04 00:45:12;;;;;;;8.13;4.62;;;;;;;18.25;60.54;99527.37;1706404;84;21516;-40
2021/08/04 00:47:40;;;;;;;6.08;4.35;;;;;;;18.18;60.58;99524.70;1722715;82;21036;-40
2021/08/04 00:50:09;;;;;;;9.10;4.35;;;;;;;18.15;60.47;99524.16;1666612;83;21886;-40
2021/08/04 00:52:36;;;;;;;7.78;4.55;;;;;;;18.12;60.66;99523.58;1674269;83;21556;-40
2021/08/04 00:55:03;;;;;;;8.68;4.80;;;;;;;18.06;60.79;99529.30;1736174;80;21802;-40
2021/08/04 00:57:30;;;;;;;8.40;4.65;;;;;;;18.01;60.80;99532.52;1704524;84;21013;-40
2021/08/04 00:59:56;;;;;;;7.20;4.37;;;;;;;17.97;61.19;99527.63;1692990;84;22076;-40
2021/08/04 01:02:40;;;;;;;6.50;4.35;;;;;;;17.91;61.34;99523.16;1759110;80;21088;-40
2021/08/04 01:05:17;;;;;;;7.45;4.30;;;;;;;18.00;61.22;99535.84;1779183;80;21080;-40
2021/08/04 01:07:55;;;;;;;6.70;4.22;;;;;;;17.97;61.44;99529.00;1733694;80;21107;-40
2021/08/04 01:10:28;;;;;;;5.92;3.67;;;;;;;17.92;61.68;99532.95;1722669;80;21014;-39
2021/08/04 01:13:00;;;;;;;6.75;4.72;;;;;;;17.88;61.80;99534.17;1713990;82;21088;-40
2021/08/04 01:15:30;;;;;;;8.43;4.62;;;;;;;17.86;61.91;99534.59;1702519;83;21276;-40
2021/08/04 01:17:57;;;;;;;8.15;4.45;;;;;;;17.85;62.03;99530.28;1705395;84;21114;-40
2021/08/04 01:20:25;;;;;;;6.87;4.62;;;;;;;17.85;62.01;99533.62;1701041;84;21126;-39
2021/08/04 01:23:24;;;;;;;7.72;4.15;;;;;;;17.84;61.93;99536.16;1751247;80;20997;-39
2021/08/04 01:26:12;;;;;;;9.28;4.22;;;;;;;17.79;61.80;99535.42;1753219;80;21064;-40
2021/08/04 01:28:47;;;;;;;6.97;4.28;;;;;;;17.71;61.81;99533.92;1738888;80;21607;-40
2021/08/04 01:31:20;;;;;;;8.58;4.25;;;;;;;17.67;61.90;99530.40;1763366;80;20937;-40
2021/08/04 01:33:49;;;;;;;5.62;4.20;;;;;;;17.63;61.85;99529.65;1763563;80;21542;-39
2021/08/04 01:36:16;;;;;;;5.43;4.10;;;;;;;17.61;61.74;99528.50;1643839;84;21602;-40
2021/08/04 01:38:42;;;;;;;6.37;4.20;;;;;;;17.56;61.66;99528.31;1761249;80;21032;-40
2021/08/04 01:41:11;;;;;;;7.10;3.72;;;;;;;17.50;61.76;99524.43;1775144;80;21143;-40
2021/08/04 01:43:39;;;;;;;7.60;3.90;;;;;;;17.49;61.79;99521.49;1770996;80;21077;-40
2021/08/04 01:46:06;;;;;;;4.55;3.72;;;;;;;17.54;61.75;99525.77;1704121;84;20995;-40
2021/08/04 01:48:34;;;;;;;6.55;3.92;;;;;;;17.58;61.56;99534.16;1700805;82;21591;-40
2021/08/04 01:51:02;;;;;;;11.05;4.28;;;;;;;17.58;61.45;99527.30;1725184;81;21535;-40
2021/08/04 01:53:29;;;;;;;5.70;3.70;;;;;;;17.56;61.70;99531.05;1742538;80;21116;-40
2021/08/04 01:55:57;;;;;;;6.90;4.40;;;;;;;17.55;61.74;99525.38;1769397;80;21463;-40
2021/08/04 01:58:23;;;;;;;7.25;4.55;;;;;;;17.55;61.58;99528.12;1757121;80;20953;-40
2021/08/04 02:00:50;;;;;;;7.33;4.67;;;;;;;17.51;61.65;99519.14;1776598;80;20989;-40
2021/08/04 02:03:17;;;;;;;7.45;4.12;;;;;;;17.51;61.87;99521.88;1729926;80;21072;-40
2021/08/04 02:05:45;;;;;;;5.55;3.98;;;;;;;17.48;61.86;99524.03;1760349;80;21133;-40
2021/08/04 02:08:29;;;;;;;6.35;4.60;;;;;;;17.43;61.59;99524.46;1758375;80;21016;-40
2021/08/04 02:11:26;;;;;;;8.35;4.28;;;;;;;17.39;61.44;99519.59;1745577;80;21463;-40
2021/08/04 02:13:57;;;;;;;5.17;4.40;;;;;;;17.35;61.23;99531.17;1693916;82;21042;-40
2021/08/04 02:16:39;;;;;;;5.35;4.12;;;;;;;17.28;61.20;99526.50;1733547;80;21002;-40
2021/08/04 02:19:23;;;;;;;5.20;4.70;;;;;;;17.24;61.40;99531.81;1744189;80;21133;-40
2021/08/04 02:22:05;;;;;;;5.40;4.72;;;;;;;17.19;61.69;99540.45;1745265;80;20982;-40
2021/08/04 02:24:37;;;;;;;6.17;4.58;;;;;;;17.13;62.04;99543.44;1682133;84;21051;-40
2021/08/04 02:27:04;;;;;;;5.87;4.60;;;;;;;17.14;62.12;99543.60;1728255;80;21045;-40
2021/08/04 02:29:32;;;;;;;7.55;4.70;;;;;;;17.16;62.04;99549.48;1764534;80;21033;-40
2021/08/04 02:32:00;;;;;;;9.25;4.97;;;;;;;17.14;62.18;99547.12;1763826;80;21353;-40
2021/08/04 02:34:27;;;;;;;6.53;4.80;;;;;;;17.15;62.19;99548.70;1699362;84;21017;-40
2021/08/04 02:36:54;;;;;;;5.83;4.70;;;;;;;17.14;62.33;99544.39;1713474;83;20914;-40
2021/08/04 02:39:21;;;;;;;7.05;4.83;;;;;;;17.17;62.39;99544.20;1730481;80;20969;-40
2021/08/04 02:41:48;;;;;;;6.37;5.00;;;;;;;17.17;62.37;99553.20;1707296;83;20941;-40
2021/08/04 02:44:15;;;;;;;6.45;5.47;;;;;;;17.15;62.24;99549.28;1681389;84;21145;-40
2021/08/04 02:46:44;;;;;;;20.27;7.20;;;;;;;17.07;62.34;99550.50;1736886;80;21480;-40
2021/08/04 02:49:11;;;;;;;6.45;5.10;;;;;;;17.05;62.78;99543.26;1754457;80;20932;-40
2021/08/04 02:51:41;;;;;;;9.40;4.75;;;;;;;17.06;62.95;99539.34;1741387;82;21055;-40
2021/08/04 02:54:08;;;;;;;16.12;5.72;;;;;;;17.08;62.90;99547.96;1746627;80;21159;-40
2021/08/04 02:56:34;;;;;;;13.28;5.62;;;;;;;17.14;62.93;99544.97;1736349;80;21123;-40
2021/08/04 02:59:01;;;;;;;8.20;4.67;;;;;;;17.20;62.92;99542.80;1730839;80;21061;-40
2021/08/04 03:01:28;;;;;;;9.63;4.75;;;;;;;17.27;62.89;99551.00;1707122;82;20993;-40
2021/08/04 03:03:55;;;;;;;7.83;4.53;;;;;;;17.31;62.90;99552.34;1747992;80;21051;-40
2021/08/04 03:06:21;;;;;;;5.78;4.80;;;;;;;17.36;62.89;99551.92;1730676;81;21552;-40
2021/08/04 03:08:48;;;;;;;8.23;4.70;;;;;;;17.41;62.90;99550.72;1762549;80;21120;-40
2021/08/04 03:11:16;;;;;;;7.08;4.85;;;;;;;17.46;62.64;99557.94;1755021;80;20866;-40
2021/08/04 03:13:43;;;;;;;10.15;5.03;;;;;;;17.48;62.60;99553.41;1746696;80;21531;-40
2021/08/04 03:16:09;;;;;;;7.25;4.92;;;;;;;17.44;62.21;99561.66;1739055;80;21037;-40
2021/08/04 03:18:36;;;;;;;8.50;5.30;;;;;;;17.39;62.08;99550.52;1732887;82;20973;-40
2021/08/04 03:21:03;;;;;;;7.28;5.12;;;;;;;17.34;62.08;99559.16;1737289;80;21151;-40
2021/08/04 03:23:29;;;;;;;7.00;4.95;;;;;;;17.31;62.30;99553.13;1741016;80;21009;-40
2021/08/04 03:25:55;;;;;;;7.50;5.35;;;;;;;17.33;62.38;99558.22;1757698;80;21004;-40
2021/08/04 03:28:22;;;;;;;5.53;4.75;;;;;;;17.35;62.79;99556.63;1690910;84;20945;-40
2021/08/04 03:30:49;;;;;;;12.10;5.70;;;;;;;17.44;62.89;99552.06;1701722;84;21524;-40
2021/08/04 03:33:16;;;;;;;10.75;4.87;;;;;;;17.57;63.15;99562.75;1743146;80;23344;-40
2021/08/04 03:35:42;;;;;;;7.47;5.25;;;;;;;17.69;63.39;99554.09;1709168;82;20993;-40
2021/08/04 03:38:09;;;;;;;5.65;4.60;;;;;;;17.80;63.10;99559.52;1745001;80;20958;-40
2021/08/04 03:40:35;;;;;;;8.18;5.10;;;;;;;17.90;63.21;99559.24;1743041;82;21076;-40
2021/08/04 03:43:02;;;;;;;6.80;4.95;;;;;;;17.98;63.17;99563.48;1695791;84;21058;-40
2021/08/04 03:45:28;;;;;;;6.70;4.55;;;;;;;18.06;62.86;99569.09;1658087;84;21152;-40
2021/08/04 03:47:55;;;;;;;7.92;4.85;;;;;;;18.13;63.33;99574.53;1735299;80;20922;-40
2021/08/04 03:50:22;;;;;;;10.23;5.22;;;;;;;18.18;63.39;99580.95;1743344;82;20946;-40
2021/08/04 03:52:49;;;;;;;5.62;4.25;;;;;;;18.25;63.56;99575.39;1737178;80;21088;-40
2021/08/04 03:55:15;;;;;;;7.47;4.03;;;;;;;18.34;63.69;99567.50;1731795;80;21029;-40
2021/08/04 03:57:42;;;;;;;5.85;4.33;;;;;;;18.45;63.36;99570.90;1749333;80;22278;-40
2021/08/04 04:00:10;;;;;;;6.90;4.47;;;;;;;18.55;63.12;99583.78;1681827;83;21009;-40
2021/08/04 04:02:40;;;;;;;6.37;4.17;;;;;;;18.62;63.28;99580.98;1756440;80;20958;-40
2021/08/04 04:05:09;;;;;;;6.20;4.33;;;;;;;18.68;63.40;99570.92;1705374;83;21057;-40
2021/08/04 04:07:35;;;;;;;5.75;4.15;;;;;;;18.76;63.66;99562.78;1696348;83;21013;-40
2021/08/04 04:10:03;;;;;;;5.80;4.05;;;;;;;18.84;63.87;99565.03;1711420;83;21107;-40
2021/08/04 04:12:30;;;;;;;7.60;4.42;;;;;;;18.91;64.10;99566.93;1737842;80;20999;-40
2021/08/04 04:14:58;;;;;;;5.78;4.20;;;;;;;19.02;63.79;99568.97;1713916;83;21025;-41
2021/08/04 04:17:26;;;;;;;8.55;3.95;;;;;;;19.14;62.97;99568.41;1714754;83;20973;-40
2021/08/04 04:19:53;;;;;;;6.40;3.90;;;;;;;19.25;62.58;99570.44;1714808;83;21025;-40
2021/08/04 04:22:19;;;;;;;8.58;4.40;;;;;;;19.30;61.92;99574.10;1711441;83;21173;-40
2021/08/04 04:24:46;;;;;;;5.28;3.77;;;;;;;19.32;61.73;99582.70;1697517;84;20939;-40
2021/08/04 04:27:14;;;;;;;10.15;4.12;;;;;;;19.22;62.16;99587.73;1751668;80;20898;-40
2021/08/04 04:29:40;;;;;;;7.83;4.62;;;;;;;19.08;62.82;99592.03;1751076;81;21132;-40
2021/08/04 04:32:08;;;;;;;5.53;4.47;;;;;;;18.99;63.33;99591.75;1747324;80;21553;-40
2021/08/04 04:34:35;;;;;;;6.60;4.28;;;;;;;18.96;63.91;99587.86;1721288;83;21135;-40
2021/08/04 04:37:03;;;;;;;9.25;4.20;;;;;;;19.03;64.23;99581.49;1722138;80;21015;-40
2021/08/04 04:39:30;;;;;;;8.15;3.87;;;;;;;19.17;63.84;99578.56;1745105;80;20996;-40
2021/08/04 04:41:56;;;;;;;7.05;3.70;;;;;;;19.31;63.37;99578.41;1757278;80;20961;-41
2021/08/04 04:44:23;;;;;;;8.25;4.15;;;;;;;19.43;62.64;99582.56;1743756;80;21047;-40
2021/08/04 04:46:50;;;;;;;5.92;3.77;;;;;;;19.51;62.34;99587.58;1713536;82;21950;-40
2021/08/04 04:49:17;;;;;;;5.37;3.87;;;;;;;19.62;62.40;99600.41;1699113;82;20969;-40
2021/08/04 04:51:44;;;;;;;6.62;3.85;;;;;;;19.67;62.01;99605.44;1719707;83;21092;-40
2021/08/04 04:54:10;;;;;;;6.08;4.00;;;;;;;19.67;62.59;99610.94;1685929;82;21086;-40
2021/08/04 04:56:37;;;;;;;6.78;4.00;;;;;;;19.68;63.14;99601.50;1742241;80;21017;-40
2021/08/04 04:59:04;;;;;;;6.08;4.08;;;;;;;19.68;63.46;99597.37;1744166;80;21168;-40
2021/08/04 05:01:32;;;;;;;5.37;3.77;;;;;;;19.73;63.58;99605.16;1739826;80;21476;-40
2021/08/04 05:03:59;;;;;;;5.75;3.87;;;;;;;19.78;63.51;99607.45;1728863;80;21101;-41
2021/08/04 05:06:26;;;;;;;6.55;4.15;;;;;;;19.84;63.50;99607.17;1737461;80;21024;-40
2021/08/04 05:08:52;;;;;;;6.80;4.28;;;;;;;19.90;63.50;99608.24;1751338;80;21470;-40
2021/08/04 05:11:19;;;;;;;5.90;4.25;;;;;;;19.96;63.57;99607.96;1748061;80;22896;-40
2021/08/04 05:13:47;;;;;;;9.35;4.30;;;;;;;20.01;63.59;99610.84;1749673;80;20956;-41
2021/08/04 05:16:14;;;;;;;5.47;3.45;;;;;;;20.05;63.06;99606.83;1749644;81;21094;-41
2021/08/04 05:19:29;;;;;;;5.47;3.60;;;;;;;20.21;62.94;99611.11;1800891;78;22647;-40
2021/08/04 05:21:56;;;;;;;6.92;3.67;;;;;;;20.26;62.72;99614.77;1770988;80;20910;-40
2021/08/04 05:24:23;;;;;;;3.72;3.27;;;;;;;20.42;61.62;99614.14;1758423;79;21551;-40
2021/08/04 05:26:50;;;;;;;5.20;3.22;;;;;;;20.57;60.13;99614.68;1753318;81;20960;-40
2021/08/04 05:29:17;;;;;;;6.30;3.17;;;;;;;20.69;58.51;99609.33;1758886;80;21866;-41
2021/08/04 05:31:44;;;;;;;3.35;2.90;;;;;;;20.82;57.61;99605.34;1771994;79;21007;-40
2021/08/04 05:34:10;;;;;;;4.97;2.90;;;;;;;20.96;57.00;99607.82;1768846;80;20937;-40
2021/08/04 05:36:37;;;;;;;4.47;3.45;;;;;;;21.08;56.27;99605.83;1774091;80;21341;-40
2021/08/04 05:39:03;;;;;;;6.83;3.27;;;;;;;21.18;55.99;99597.98;1770652;80;21021;-40
2021/08/04 05:41:30;;;;;;;4.12;3.05;;;;;;;21.29;56.20;99602.50;1771897;79;20972;-40
2021/08/04 05:43:56;;;;;;;9.45;4.00;;;;;;;21.38;56.55;99602.09;1762199;79;22132;-40
2021/08/04 05:46:23;;;;;;;4.65;3.52;;;;;;;21.47;57.04;99594.62;1770124;80;21031;-40
2021/08/04 05:48:49;;;;;;;4.12;3.35;;;;;;;21.55;57.30;99604.28;1768130;80;21160;-40
2021/08/04 05:51:16;;;;;;;5.95;3.42;;;;;;;21.63;57.27;99598.80;1777679;80;20946;-40
2021/08/04 05:53:43;;;;;;;5.28;3.42;;;;;;;21.72;57.11;99601.75;1776663;80;21091;-40
2021/08/04 05:56:09;;;;;;;6.40;3.47;;;;;;;21.78;56.32;99602.80;1766594;80;21024;-40
2021/08/04 05:58:36;;;;;;;5.05;3.30;;;;;;;21.86;55.89;99603.41;1766149;80;21021;-40
2021/08/04 06:01:03;;;;;;;4.42;3.25;;;;;;;21.94;55.76;99602.05;1770324;79;21705;-40
2021/08/04 06:03:30;;;;;;;3.60;2.55;;;;;;;22.04;55.22;99599.05;1759839;80;21476;-40
2021/08/04 06:05:57;;;;;;;4.40;2.90;;;;;;;22.16;54.82;99595.43;1765674;80;21051;-40
2021/08/04 06:08:24;;;;;;;3.05;2.67;;;;;;;22.25;54.05;99603.88;1768088;80;21068;-40
2021/08/04 06:10:51;;;;;;;6.37;3.15;;;;;;;22.33;52.79;99606.03;1765259;80;21700;-40
2021/08/04 06:13:17;;;;;;;5.55;3.10;;;;;;;22.43;53.14;99612.49;1767300;80;21150;-40
2021/08/04 06:15:45;;;;;;;6.25;2.80;;;;;;;22.50;52.54;99610.95;1767870;80;21773;-40
2021/08/04 06:18:11;;;;;;;4.80;2.87;;;;;;;22.32;52.96;99562.26;1737957;80;21331;-40
2021/08/04 06:20:38;;;;;;;6.17;3.20;;;;;;;22.68;52.72;99606.33;1740311;80;21000;-40
2021/08/04 06:23:05;;;;;;;3.70;2.77;;;;;;;22.77;53.03;99614.80;1747175;80;21013;-40
2021/08/04 06:25:32;;;;;;;5.42;3.00;;;;;;;22.85;51.97;99614.80;1751544;80;21170;-40
2021/08/04 06:27:59;;;;;;;5.47;2.98;;;;;;;22.93;52.46;99608.64;1763351;80;21031;-40
2021/08/04 06:30:25;;;;;;;8.00;3.10;;;;;;;23.02;51.21;99608.59;1741872;82;21062;-40
2021/08/04 06:32:52;;;;;;;3.90;2.72;;;;;;;23.13;50.40;99598.02;1748736;80;21098;-40
2021/08/04 06:35:18;;;;;;;4.70;2.55;;;;;;;23.25;50.28;99601.41;1742337;82;21021;-40
2021/08/04 06:37:45;;;;;;;5.10;2.70;;;;;;;23.35;49.27;99601.11;1740457;80;21160;-40
2021/08/04 06:40:13;;;;;;;2.87;2.47;;;;;;;23.46;49.17;99602.22;1745655;80;20984;-40
2021/08/04 06:42:41;;;;;;;4.05;2.90;;;;;;;23.57;49.24;99605.45;1742097;80;21794;-40
2021/08/04 06:45:09;;;;;;;3.40;2.52;;;;;;;23.68;49.34;99603.72;1747331;80;20941;-40
2021/08/04 06:47:36;;;;;;;4.50;2.83;;;;;;;23.78;49.39;99599.84;1719064;80;21032;-40
2021/08/04 06:50:04;;;;;;;3.25;2.47;;;;;;;23.88;48.53;99606.27;1740792;80;21151;-40
2021/08/04 06:52:31;;;;;;;2.45;2.20;;;;;;;23.99;48.31;99606.72;1743494;80;21029;-40
2021/08/04 06:54:57;;;;;;;2.58;2.20;;;;;;;24.05;46.61;99604.95;1744005;80;21064;-42
2021/08/04 06:57:24;;;;;;;8.45;2.30;;;;;;;24.14;46.03;99607.81;1746089;80;21076;-42
2021/08/04 06:59:51;;;;;;;3.17;2.40;;;;;;;24.21;44.30;99596.52;1740388;82;21034;-41
2021/08/04 07:02:17;;;;;;;7.47;2.20;;;;;;;24.32;44.04;99601.71;1747462;80;21418;-41
2021/08/04 07:04:44;;;;;;;3.90;2.47;;;;;;;24.40;44.09;99598.25;1743766;80;21123;-41
2021/08/04 07:07:15;;;;;;;5.37;2.35;;;;;;;24.50;43.78;99603.27;1739696;80;21059;-41
2021/08/04 07:09:42;;;;;;;2.80;2.15;;;;;;;24.60;43.01;99607.06;1723641;80;21073;-41
2021/08/04 07:12:10;;;;;;;4.58;2.35;;;;;;;24.71;41.97;99604.54;1732252;80;21112;-41
2021/08/04 07:14:38;;;;;;;4.95;2.17;;;;;;;24.83;41.07;99605.13;1729407;80;21150;-41
2021/08/04 07:17:07;;;;;;;7.05;2.10;;;;;;;24.96;40.98;99610.02;1744207;80;21626;-41
2021/08/04 07:19:34;;;;;;;3.10;2.20;;;;;;;25.05;39.80;99603.15;1746923;80;21518;-41
2021/08/04 07:22:01;;;;;;;3.80;2.12;;;;;;;25.17;40.63;99612.03;1713094;83;21084;-41
2021/08/04 07:24:27;;;;;;;3.17;2.35;;;;;;;25.30;40.00;99613.34;1725951;80;21052;-41
2021/08/04 07:26:54;;;;;;;4.87;2.22;;;;;;;25.42;38.65;99610.47;1733432;80;21156;-41
2021/08/04 07:29:20;;;;;;;3.75;2.30;;;;;;;25.55;39.04;99604.11;1743194;80;21029;-41
2021/08/04 07:31:49;;;;;;;5.50;2.10;;;;;;;25.64;38.22;99608.31;1747715;81;21029;-41
2021/08/04 07:34:15;;;;;;;3.25;2.15;;;;;;;25.72;37.84;99611.73;1749452;80;21491;-41
2021/08/04 07:36:42;;;;;;;4.92;2.20;;;;;;;25.77;37.51;99616.70;1758184;81;21065;-42
2021/08/04 07:39:09;;;;;;;3.70;1.52;;;;;;;25.77;36.19;99617.31;1753588;81;21144;-41
2021/08/04 07:41:36;;;;;;;2.92;1.87;;;;;;;25.74;37.09;99617.63;1680215;83;20974;-41
2021/08/04 07:44:03;;;;;;;2.60;1.92;;;;;;;25.81;37.37;99617.95;1746520;80;21673;-42
2021/08/04 07:46:29;;;;;;;2.75;2.02;;;;;;;25.93;37.07;99619.86;1730044;80;20992;-41
2021/08/04 07:48:57;;;;;;;2.55;1.80;;;;;;;26.06;36.69;99614.18;1734410;80;20992;-41
2021/08/04 07:51:23;;;;;;;5.05;2.37;;;;;;;26.14;35.69;99607.88;1752873;81;21104;-41
2021/08/04 07:53:51;;;;;;;3.33;2.35;;;;;;;26.25;35.38;99603.30;1674668;83;21018;-42
2021/08/04 07:56:19;;;;;;;2.27;2.08;;;;;;;26.36;35.41;99607.20;1678924;84;21056;-41
2021/08/04 07:58:47;;;;;;;2.52;1.90;;;;;;;26.50;35.50;99611.38;1677217;83;21007;-41
2021/08/04 08:01:14;;;;;;;3.52;2.10;;;;;;;26.65;34.72;99610.16;1738554;80;21072;-41
2021/08/04 08:03:40;;;;;;;2.67;1.80;;;;;;;26.80;34.66;99599.36;1744358;80;21211;-41
2021/08/04 08:06:07;;;;;;;3.35;1.95;;;;;;;26.94;34.13;99599.38;1734745;80;21019;-42
2021/08/04 08:08:34;;;;;;;3.33;1.85;;;;;;;27.07;35.40;99598.58;1712588;82;21657;-41
2021/08/04 08:11:03;;;;;;;3.77;1.90;;;;;;;27.23;35.32;99597.48;1717776;82;21031;-41
2021/08/04 08:13:31;;;;;;;5.17;1.95;;;;;;;27.40;35.50;99590.95;1722470;82;21060;-41
2021/08/04 08:15:58;;;;;;;4.00;2.25;;;;;;;27.56;34.75;99583.03;1713642;82;21195;-41
2021/08/04 08:18:26;;;;;;;2.85;2.20;;;;;;;27.70;34.68;99576.63;1690662;82;21854;-41
2021/08/04 08:20:54;;;;;;;4.08;2.20;;;;;;;27.83;34.97;99585.56;1728483;82;20987;-41
2021/08/04 08:23:21;;;;;;;2.80;2.12;;;;;;;27.94;33.50;99586.58;1726919;82;20979;-42
2021/08/04 08:25:49;;;;;;;4.75;2.27;;;;;;;28.01;34.10;99582.69;1701277;82;21058;-42
2021/08/04 08:28:16;;;;;;;3.72;2.10;;;;;;;28.10;33.60;99585.41;1715967;82;21155;-42
2021/08/04 08:30:43;;;;;;;4.53;2.27;;;;;;;28.17;33.39;99583.71;1722186;82;21098;-42
2021/08/04 08:33:11;;;;;;;4.25;2.15;;;;;;;28.21;33.17;99574.55;1713022;83;21025;-42
2021/08/04 08:35:37;;;;;;;3.40;2.30;;;;;;;28.24;32.85;99575.60;1694140;83;20984;-42
2021/08/04 08:38:04;;;;;;;2.90;2.40;;;;;;;28.18;33.22;99570.52;1686491;83;21065;-41
2021/08/04 08:40:31;;;;;;;4.92;2.17;;;;;;;28.07;33.35;99565.47;1726851;82;21136;-42
2021/08/04 08:42:57;;;;;;;3.37;2.00;;;;;;;28.01;33.48;99572.31;1745280;82;20985;-41
2021/08/04 08:45:25;;;;;;;11.18;2.72;;;;;;;28.01;32.99;99566.73;1743627;82;21536;-41
2021/08/04 08:47:53;;;;;;;79.20;7.55;;;;;;;28.05;33.13;99558.96;1726956;82;21026;-42
2021/08/04 08:50:25;;;;;;;3.75;2.37;;;;;;;28.10;33.33;99567.30;1723302;82;21073;-41
2021/08/04 08:52:49;;;;;;;2.47;2.05;;;;;;;28.22;32.58;99566.34;1730255;82;21159;-42
2021/08/04 08:55:16;;;;;;;9.38;2.40;;;;;;;28.33;32.54;99567.17;1728512;82;21631;-41
2021/08/04 08:57:42;;;;;;;5.10;2.40;;;;;;;28.40;33.41;99556.44;1732534;82;21049;-42
2021/08/04 09:00:11;;;;;;;3.08;2.10;;;;;;;28.54;33.02;99561.91;1706177;82;21013;-42
2021/08/04 09:02:38;;;;;;;7.08;2.20;;;;;;;28.69;32.33;99561.33;1710400;83;21118;-41
2021/08/04 09:05:08;;;;;;;10.05;2.47;;;;;;;28.87;32.55;99561.19;1625798;83;21240;-42
2021/08/04 09:07:37;;;;;;;3.93;1.80;;;;;;;29.03;32.69;99559.19;1699338;83;21031;-42
2021/08/04 09:10:20;;;;;;;3.25;1.80;;;;;;;29.19;31.96;99560.86;1700135;83;21097;-41
2021/08/04 09:12:50;;;;;;;1.77;1.67;;;;;;;29.32;31.28;99562.78;1705874;82;20994;-41
2021/08/04 09:15:26;;;;;;;3.27;1.80;;;;;;;29.43;31.86;99562.83;1714450;82;20995;-41
2021/08/04 09:18:04;;;;;;;3.15;1.52;;;;;;;29.51;32.93;99563.34;1718241;82;21213;-41
2021/08/04 09:20:53;;;;;;;2.55;1.60;;;;;;;29.58;30.79;99557.34;1685371;83;21546;-41
2021/08/04 09:23:23;;;;;;;2.42;1.60;;;;;;;29.60;29.99;99560.43;1688550;83;21172;-42
2021/08/04 09:26:10;;;;;;;2.22;1.50;;;;;;;29.52;29.69;99552.94;1709617;83;21186;-42
2021/08/04 09:29:09;;;;;;;1.72;1.20;;;;;;;29.40;29.20;99551.98;1688412;84;21118;-42
2021/08/04 09:31:51;;;;;;;3.95;1.77;;;;;;;29.32;29.40;99555.02;1675495;84;21161;-42
2021/08/04 09:34:39;;;;;;;2.62;1.85;;;;;;;29.24;29.72;99544.08;1693797;84;21069;-42
2021/08/04 09:37:12;;;;;;;3.22;1.62;;;;;;;29.27;30.16;99539.69;1704819;83;21533;-42
2021/08/04 09:39:40;;;;;;;4.67;1.87;;;;;;;29.34;30.46;99542.73;1697762;81;21064;-42
2021/08/04 09:42:08;;;;;;;2.33;1.60;;;;;;;29.38;30.66;99540.53;1708235;83;21551;-42
2021/08/04 09:44:35;;;;;;;2.85;1.67;;;;;;;29.38;31.93;99543.33;1693843;83;21984;-42
2021/08/04 09:47:13;;;;;;;2.30;1.67;;;;;;;29.32;31.02;99543.85;1683383;84;20972;-42
2021/08/04 09:49:43;;;;;;;2.87;1.82;;;;;;;29.28;31.55;99541.86;1690013;84;21083;-42
2021/08/04 09:52:11;;;;;;;3.27;1.67;;;;;;;29.34;32.60;99532.95;1693628;84;21043;-42
2021/08/04 09:54:42;;;;;;;2.85;1.70;;;;;;;29.48;31.51;99534.98;1709406;83;21538;-42
2021/08/04 09:57:11;;;;;;;2.58;1.62;;;;;;;29.53;30.34;99527.28;1694299;84;21789;-42
2021/08/04 09:59:38;;;;;;;2.60;1.65;;;;;;;29.48;30.30;99528.63;1700948;83;20905;-42
2021/08/04 10:02:05;;;;;;;3.83;1.72;;;;;;;29.41;30.25;99522.80;1703419;83;21033;-42
2021/08/04 10:04:32;;;;;;;3.58;2.10;;;;;;;29.30;30.98;99522.58;1695458;83;21494;-42
2021/08/04 10:07:09;;;;;;;2.60;1.70;;;;;;;29.21;30.53;99522.69;1696816;83;20993;-42
2021/08/04 10:09:36;;;;;;;2.52;1.70;;;;;;;29.13;31.80;99530.70;1673487;83;21122;-42
2021/08/04 10:12:04;;;;;;;2.55;1.90;;;;;;;29.20;32.23;99523.94;1675890;84;20944;-42
2021/08/04 10:14:31;;;;;;;3.08;1.77;;;;;;;29.34;31.32;99525.34;1681099;84;20964;-42
2021/08/04 10:16:58;;;;;;;2.37;1.67;;;;;;;29.59;31.31;99534.36;1703658;83;21095;-42
2021/08/04 10:19:25;;;;;;;2.17;1.67;;;;;;;29.71;31.86;99526.30;1722070;82;21552;-42
2021/08/04 10:21:53;;;;;;;3.65;2.00;;;;;;;29.78;31.07;99535.03;1703680;83;21201;-42
2021/08/04 10:24:20;;;;;;;2.80;1.52;;;;;;;29.71;30.58;99527.08;1662176;86;20996;-42
2021/08/04 10:26:47;;;;;;;4.30;1.87;;;;;;;29.54;30.03;99527.44;1700119;83;21023;-42
2021/08/04 10:29:14;;;;;;;4.42;1.87;;;;;;;29.36;31.19;99527.66;1706340;83;21035;-42
2021/08/04 10:31:41;;;;;;;2.10;1.80;;;;;;;29.18;31.83;99528.63;1691583;84;21614;-42
2021/08/04 10:34:07;;;;;;;3.27;1.80;;;;;;;29.05;32.98;99531.56;1692575;83;21833;-41
2021/08/04 10:36:38;;;;;;;3.02;1.77;;;;;;;28.97;32.62;99530.39;1664636;85;21030;-41
2021/08/04 10:39:15;;;;;;;3.60;2.20;;;;;;;28.86;32.67;99526.15;1680235;84;20953;-41
2021/08/04 10:42:04;;;;;;;5.12;2.12;;;;;;;28.73;32.86;99529.08;1672360;84;21627;-41
2021/08/04 10:44:31;;;;;;;5.70;2.20;;;;;;;28.53;33.30;99529.06;1698827;83;21028;-42
2021/08/04 10:46:59;;;;;;;4.40;1.80;;;;;;;28.38;33.47;99520.50;1692801;83;21123;-42
2021/08/04 10:49:32;;;;;;;2.47;2.10;;;;;;;28.27;33.98;99516.12;1692063;83;21518;-42
2021/08/04 10:52:06;;;;;;;4.15;2.02;;;;;;;28.21;34.83;99518.02;1715982;83;21065;-41
2021/08/04 10:54:32;;;;;;;4.35;2.25;;;;;;;28.13;35.10;99515.45;1681353;84;21095;-41
2021/08/04 10:57:05;;;;;;;5.97;2.40;;;;;;;28.04;34.03;99510.66;1662771;85;21060;-42
2021/08/04 10:59:33;;;;;;;3.42;2.35;;;;;;;28.01;34.52;99511.61;1698520;84;21758;-41
2021/08/04 11:02:05;;;;;;;3.27;2.30;;;;;;;28.01;34.46;99515.17;1675827;84;21045;-42
2021/08/04 11:04:40;;;;;;;5.25;2.37;;;;;;;28.01;33.99;99513.01;1683425;84;21117;-41
2021/08/04 11:07:13;;;;;;;3.22;2.27;;;;;;;28.01;34.59;99509.60;1702135;83;21561;-41
2021/08/04 11:09:53;;;;;;;3.25;2.20;;;;;;;28.10;35.61;99505.97;1702000;83;21011;-41
2021/08/04 11:12:41;;;;;;;4.97;2.60;;;;;;;28.24;35.07;99507.30;1709368;83;20929;-42
2021/08/04 11:15:29;;;;;;;5.70;2.72;;;;;;;28.32;33.57;99499.47;1718551;83;21027;-42
2021/08/04 11:18:07;;;;;;;3.75;2.50;;;;;;;28.37;33.86;99504.39;1720610;83;21033;-42
2021/08/04 11:21:13;;;;;;;3.02;2.15;;;;;;;28.37;33.37;99502.25;1719519;82;21111;-41
2021/08/04 11:23:45;;;;;;;2.65;2.10;;;;;;;28.36;33.27;99500.09;1712226;82;21088;-42
2021/08/04 11:26:24;;;;;;;3.60;2.17;;;;;;;28.45;33.13;99502.02;1737114;82;22038;-42
2021/08/04 11:28:51;;;;;;;5.80;2.50;;;;;;;28.60;33.35;99504.84;1719717;82;20959;-42
2021/08/04 11:31:19;;;;;;;4.67;2.30;;;;;;;28.74;34.54;99506.28;1710385;82;21119;-42
2021/08/04 11:33:46;;;;;;;3.72;1.90;;;;;;;28.93;34.28;99506.87;1713733;82;22144;-42
2021/08/04 11:36:19;;;;;;;3.62;2.12;;;;;;;29.11;32.96;99506.66;1699291;82;21049;-41
2021/08/04 11:39:01;;;;;;;2.22;1.85;;;;;;;29.22;32.62;99501.89;1713381;82;21721;-41
2021/08/04 11:41:46;;;;;;;3.02;1.87;;;;;;;29.39;32.66;99503.59;1747434;80;20961;-41
2021/08/04 11:44:20;;;;;;;3.75;2.30;;;;;;;29.63;32.02;99495.19;1748851;82;21016;-41